sensor_id;sensor_type;location;lat;lon;timestamp;temperature;humidity
53748;DHT22;39655;53.210;5.768;2023-06-14T00:02:09;16.70;55.20
53748;DHT22;39655;53.210;5.768;2023-06-14T00:04:38;16.70;55.30
53748;DHT22;39655;53.210;5.768;2023-06-14T00:07:07;16.80;55.50
53748;DHT22;39655;53.210;5.768;2023-06-14T00:09:35;16.60;55.60
53748;DHT22;39655;53.210;5.768;2023-06-14T00:12:02;16.60;55.90
53748;DHT22;39655;53.210;5.768;2023-06-14T00:14:27;16.50;56.20
53748;DHT22;39655;53.210;5.768;2023-06-14T00:16:53;16.40;56.30
53748;DHT22;39655;53.210;5.768;2023-06-14T00:19:26;16.40;56.60
53748;DHT22;39655;53.210;5.768;2023-06-14T00:21:52;16.30;57.30
53748;DHT22;39655;53.210;5.768;2023-06-14T00:24:19;16.20;56.90
53748;DHT22;39655;53.210;5.768;2023-06-14T00:26:45;16.20;57.30
53748;DHT22;39655;53.210;5.768;2023-06-14T00:29:10;16.20;57.30
53748;DHT22;39655;53.210;5.768;2023-06-14T00:31:36;16.20;57.70
53748;DHT22;39655;53.210;5.768;2023-06-14T00:34:05;16.10;57.90
53748;DHT22;39655;53.210;5.768;2023-06-14T00:36:31;16.10;58.00
53748;DHT22;39655;53.210;5.768;2023-06-14T00:38:57;16.10;59.00
53748;DHT22;39655;53.210;5.768;2023-06-14T00:41:22;16.00;59.00
53748;DHT22;39655;53.210;5.768;2023-06-14T00:43:48;16.00;58.60
53748;DHT22;39655;53.210;5.768;2023-06-14T00:46:14;16.00;59.20
53748;DHT22;39655;53.210;5.768;2023-06-14T00:48:40;15.90;59.30
53748;DHT22;39655;53.210;5.768;2023-06-14T00:51:06;15.90;59.60
53748;DHT22;39655;53.210;5.768;2023-06-14T00:53:32;15.80;60.10
53748;DHT22;39655;53.210;5.768;2023-06-14T00:56:01;15.80;59.90
53748;DHT22;39655;53.210;5.768;2023-06-14T00:58:27;15.70;60.40
53748;DHT22;39655;53.210;5.768;2023-06-14T01:00:53;15.70;60.80
53748;DHT22;39655;53.210;5.768;2023-06-14T01:03:19;15.70;61.00
53748;DHT22;39655;53.210;5.768;2023-06-14T01:05:50;15.60;61.20
53748;DHT22;39655;53.210;5.768;2023-06-14T01:08:34;15.60;61.80
53748;DHT22;39655;53.210;5.768;2023-06-14T01:11:07;15.60;61.70
53748;DHT22;39655;53.210;5.768;2023-06-14T01:13:38;15.50;62.20
53748;DHT22;39655;53.210;5.768;2023-06-14T01:16:05;15.50;62.50
53748;DHT22;39655;53.210;5.768;2023-06-14T01:18:32;15.50;63.30
53748;DHT22;39655;53.210;5.768;2023-06-14T01:20:59;15.50;63.40
53748;DHT22;39655;53.210;5.768;2023-06-14T01:23:25;15.40;63.20
53748;DHT22;39655;53.210;5.768;2023-06-14T01:25:59;15.50;63.70
53748;DHT22;39655;53.210;5.768;2023-06-14T01:28:26;15.40;64.00
53748;DHT22;39655;53.210;5.768;2023-06-14T01:30:59;15.30;63.90
53748;DHT22;39655;53.210;5.768;2023-06-14T01:33:27;15.30;64.70
53748;DHT22;39655;53.210;5.768;2023-06-14T01:35:55;15.30;64.70
53748;DHT22;39655;53.210;5.768;2023-06-14T01:38:26;15.20;65.00
53748;DHT22;39655;53.210;5.768;2023-06-14T01:40:54;15.20;65.30
53748;DHT22;39655;53.210;5.768;2023-06-14T01:43:21;15.10;65.60
53748;DHT22;39655;53.210;5.768;2023-06-14T01:45:48;15.10;66.10
53748;DHT22;39655;53.210;5.768;2023-06-14T01:48:14;15.10;66.40
53748;DHT22;39655;53.210;5.768;2023-06-14T01:50:40;15.10;66.30
53748;DHT22;39655;53.210;5.768;2023-06-14T01:53:07;15.10;66.10
53748;DHT22;39655;53.210;5.768;2023-06-14T01:55:34;15.10;65.90
53748;DHT22;39655;53.210;5.768;2023-06-14T01:58:03;15.00;67.00
53748;DHT22;39655;53.210;5.768;2023-06-14T02:00:29;15.10;66.90
53748;DHT22;39655;53.210;5.768;2023-06-14T02:02:55;15.00;66.90
53748;DHT22;39655;53.210;5.768;2023-06-14T02:05:21;15.00;67.00
53748;DHT22;39655;53.210;5.768;2023-06-14T02:07:47;15.00;67.40
53748;DHT22;39655;53.210;5.768;2023-06-14T02:10:13;14.90;67.50
53748;DHT22;39655;53.210;5.768;2023-06-14T02:12:39;14.90;68.00
53748;DHT22;39655;53.210;5.768;2023-06-14T02:15:09;14.90;67.60
53748;DHT22;39655;53.210;5.768;2023-06-14T02:17:35;14.80;67.70
53748;DHT22;39655;53.210;5.768;2023-06-14T02:20:01;14.80;68.00
53748;DHT22;39655;53.210;5.768;2023-06-14T02:22:29;14.80;68.20
53748;DHT22;39655;53.210;5.768;2023-06-14T02:24:54;14.80;68.20
53748;DHT22;39655;53.210;5.768;2023-06-14T02:27:20;14.80;68.50
53748;DHT22;39655;53.210;5.768;2023-06-14T02:29:46;14.80;69.20
53748;DHT22;39655;53.210;5.768;2023-06-14T02:32:12;14.80;68.90
53748;DHT22;39655;53.210;5.768;2023-06-14T02:34:37;14.70;69.00
53748;DHT22;39655;53.210;5.768;2023-06-14T02:37:06;14.80;69.10
53748;DHT22;39655;53.210;5.768;2023-06-14T02:39:32;14.70;69.40
53748;DHT22;39655;53.210;5.768;2023-06-14T02:41:58;14.70;69.50
53748;DHT22;39655;53.210;5.768;2023-06-14T02:44:25;14.70;69.90
53748;DHT22;39655;53.210;5.768;2023-06-14T02:46:53;14.60;70.00
53748;DHT22;39655;53.210;5.768;2023-06-14T02:49:19;14.60;70.30
53748;DHT22;39655;53.210;5.768;2023-06-14T02:51:45;14.50;70.20
53748;DHT22;39655;53.210;5.768;2023-06-14T02:54:10;14.50;70.60
53748;DHT22;39655;53.210;5.768;2023-06-14T02:56:36;14.40;70.80
53748;DHT22;39655;53.210;5.768;2023-06-14T02:59:02;14.40;70.60
53748;DHT22;39655;53.210;5.768;2023-06-14T03:01:28;14.40;71.10
53748;DHT22;39655;53.210;5.768;2023-06-14T03:04:01;14.40;71.30
53748;DHT22;39655;53.210;5.768;2023-06-14T03:06:32;14.30;71.80
53748;DHT22;39655;53.210;5.768;2023-06-14T03:08:59;14.30;71.60
53748;DHT22;39655;53.210;5.768;2023-06-14T03:11:28;14.30;72.10
53748;DHT22;39655;53.210;5.768;2023-06-14T03:13:54;14.30;72.00
53748;DHT22;39655;53.210;5.768;2023-06-14T03:16:22;14.20;72.10
53748;DHT22;39655;53.210;5.768;2023-06-14T03:18:52;14.20;72.60
53748;DHT22;39655;53.210;5.768;2023-06-14T03:21:19;14.20;72.50
53748;DHT22;39655;53.210;5.768;2023-06-14T03:23:46;14.20;72.80
53748;DHT22;39655;53.210;5.768;2023-06-14T03:26:12;14.30;73.30
53748;DHT22;39655;53.210;5.768;2023-06-14T03:28:46;14.20;72.90
53748;DHT22;39655;53.210;5.768;2023-06-14T03:31:13;14.20;73.20
53748;DHT22;39655;53.210;5.768;2023-06-14T03:33:39;14.20;73.30
53748;DHT22;39655;53.210;5.768;2023-06-14T03:36:05;14.10;73.60
53748;DHT22;39655;53.210;5.768;2023-06-14T03:38:32;14.10;73.80
53748;DHT22;39655;53.210;5.768;2023-06-14T03:40:58;14.10;73.90
53748;DHT22;39655;53.210;5.768;2023-06-14T03:43:23;14.10;73.80
53748;DHT22;39655;53.210;5.768;2023-06-14T03:45:50;14.10;74.00
53748;DHT22;39655;53.210;5.768;2023-06-14T03:48:16;14.10;74.00
53748;DHT22;39655;53.210;5.768;2023-06-14T03:50:42;14.10;74.40
53748;DHT22;39655;53.210;5.768;2023-06-14T03:53:08;14.10;74.20
53748;DHT22;39655;53.210;5.768;2023-06-14T03:55:34;14.10;74.40
53748;DHT22;39655;53.210;5.768;2023-06-14T03:58:01;14.10;74.50
53748;DHT22;39655;53.210;5.768;2023-06-14T04:00:26;14.10;74.60
53748;DHT22;39655;53.210;5.768;2023-06-14T04:02:52;14.10;74.90
53748;DHT22;39655;53.210;5.768;2023-06-14T04:05:19;14.10;74.70
53748;DHT22;39655;53.210;5.768;2023-06-14T04:07:47;14.10;75.20
53748;DHT22;39655;53.210;5.768;2023-06-14T04:10:14;14.10;75.20
53748;DHT22;39655;53.210;5.768;2023-06-14T04:12:41;14.10;75.20
53748;DHT22;39655;53.210;5.768;2023-06-14T04:15:09;14.20;75.20
53748;DHT22;39655;53.210;5.768;2023-06-14T04:17:35;14.20;75.30
53748;DHT22;39655;53.210;5.768;2023-06-14T04:20:02;14.20;75.20
53748;DHT22;39655;53.210;5.768;2023-06-14T04:22:30;14.20;75.40
53748;DHT22;39655;53.210;5.768;2023-06-14T04:24:57;14.20;75.40
53748;DHT22;39655;53.210;5.768;2023-06-14T04:27:23;14.30;75.60
53748;DHT22;39655;53.210;5.768;2023-06-14T04:29:52;14.20;75.60
53748;DHT22;39655;53.210;5.768;2023-06-14T04:32:28;14.30;75.70
53748;DHT22;39655;53.210;5.768;2023-06-14T04:34:59;14.30;75.70
53748;DHT22;39655;53.210;5.768;2023-06-14T04:37:27;14.40;75.80
53748;DHT22;39655;53.210;5.768;2023-06-14T04:39:55;14.40;75.90
53748;DHT22;39655;53.210;5.768;2023-06-14T04:42:23;14.40;75.70
53748;DHT22;39655;53.210;5.768;2023-06-14T04:44:51;14.40;76.00
53748;DHT22;39655;53.210;5.768;2023-06-14T04:47:23;14.50;76.00
53748;DHT22;39655;53.210;5.768;2023-06-14T04:49:50;14.50;75.90
53748;DHT22;39655;53.210;5.768;2023-06-14T04:52:19;14.60;75.90
53748;DHT22;39655;53.210;5.768;2023-06-14T04:54:46;14.60;75.80
53748;DHT22;39655;53.210;5.768;2023-06-14T04:57:12;14.70;76.20
53748;DHT22;39655;53.210;5.768;2023-06-14T04:59:43;14.70;75.90
53748;DHT22;39655;53.210;5.768;2023-06-14T05:02:10;14.80;75.90
53748;DHT22;39655;53.210;5.768;2023-06-14T05:04:37;14.80;75.80
53748;DHT22;39655;53.210;5.768;2023-06-14T05:07:08;14.90;75.90
53748;DHT22;39655;53.210;5.768;2023-06-14T05:09:35;15.00;75.80
53748;DHT22;39655;53.210;5.768;2023-06-14T05:12:02;15.10;75.70
53748;DHT22;39655;53.210;5.768;2023-06-14T05:14:28;15.10;75.60
53748;DHT22;39655;53.210;5.768;2023-06-14T05:16:54;15.20;75.50
53748;DHT22;39655;53.210;5.768;2023-06-14T05:19:19;15.20;75.30
53748;DHT22;39655;53.210;5.768;2023-06-14T05:21:47;15.30;75.20
53748;DHT22;39655;53.210;5.768;2023-06-14T05:24:14;15.30;75.10
53748;DHT22;39655;53.210;5.768;2023-06-14T05:26:40;15.40;74.90
53748;DHT22;39655;53.210;5.768;2023-06-14T05:29:08;15.50;74.80
53748;DHT22;39655;53.210;5.768;2023-06-14T05:31:34;15.50;74.70
53748;DHT22;39655;53.210;5.768;2023-06-14T05:34:00;15.60;74.70
53748;DHT22;39655;53.210;5.768;2023-06-14T05:36:26;15.60;74.30
53748;DHT22;39655;53.210;5.768;2023-06-14T05:38:53;15.70;74.20
53748;DHT22;39655;53.210;5.768;2023-06-14T05:42:00;15.80;73.90
53748;DHT22;39655;53.210;5.768;2023-06-14T05:44:29;15.90;73.90
53748;DHT22;39655;53.210;5.768;2023-06-14T05:46:55;15.90;73.60
53748;DHT22;39655;53.210;5.768;2023-06-14T05:49:23;16.00;73.40
53748;DHT22;39655;53.210;5.768;2023-06-14T05:51:49;16.00;73.10
53748;DHT22;39655;53.210;5.768;2023-06-14T05:54:15;16.10;72.80
53748;DHT22;39655;53.210;5.768;2023-06-14T05:56:41;16.10;72.50
53748;DHT22;39655;53.210;5.768;2023-06-14T05:59:07;16.20;72.30
53748;DHT22;39655;53.210;5.768;2023-06-14T06:01:33;16.30;71.70
53748;DHT22;39655;53.210;5.768;2023-06-14T06:04:02;16.40;71.20
53748;DHT22;39655;53.210;5.768;2023-06-14T06:06:28;16.50;71.00
53748;DHT22;39655;53.210;5.768;2023-06-14T06:08:54;16.50;71.00
53748;DHT22;39655;53.210;5.768;2023-06-14T06:11:22;16.60;70.90
53748;DHT22;39655;53.210;5.768;2023-06-14T06:13:48;16.60;70.70
53748;DHT22;39655;53.210;5.768;2023-06-14T06:16:14;16.70;70.40
53748;DHT22;39655;53.210;5.768;2023-06-14T06:18:40;16.80;69.90
53748;DHT22;39655;53.210;5.768;2023-06-14T06:21:06;16.90;69.70
53748;DHT22;39655;53.210;5.768;2023-06-14T06:23:31;16.90;69.40
53748;DHT22;39655;53.210;5.768;2023-06-14T06:25:57;17.10;69.30
53748;DHT22;39655;53.210;5.768;2023-06-14T06:28:23;17.10;69.10
53748;DHT22;39655;53.210;5.768;2023-06-14T06:30:49;17.20;68.80
53748;DHT22;39655;53.210;5.768;2023-06-14T06:33:15;17.30;68.60
53748;DHT22;39655;53.210;5.768;2023-06-14T06:35:41;17.40;68.40
53748;DHT22;39655;53.210;5.768;2023-06-14T06:38:07;17.50;68.20
53748;DHT22;39655;53.210;5.768;2023-06-14T06:40:34;17.60;68.20
53748;DHT22;39655;53.210;5.768;2023-06-14T06:43:02;17.70;67.80
53748;DHT22;39655;53.210;5.768;2023-06-14T06:45:28;17.80;67.40
53748;DHT22;39655;53.210;5.768;2023-06-14T06:47:54;17.90;67.10
53748;DHT22;39655;53.210;5.768;2023-06-14T06:50:21;18.00;66.90
53748;DHT22;39655;53.210;5.768;2023-06-14T06:52:48;18.10;66.70
53748;DHT22;39655;53.210;5.768;2023-06-14T06:55:14;18.30;66.50
53748;DHT22;39655;53.210;5.768;2023-06-14T06:57:40;18.40;65.80
53748;DHT22;39655;53.210;5.768;2023-06-14T07:00:07;18.50;65.20
53748;DHT22;39655;53.210;5.768;2023-06-14T07:02:36;18.60;63.60
53748;DHT22;39655;53.210;5.768;2023-06-14T07:05:02;18.70;63.60
53748;DHT22;39655;53.210;5.768;2023-06-14T07:07:28;18.90;63.70
53748;DHT22;39655;53.210;5.768;2023-06-14T07:09:53;19.00;63.00
53748;DHT22;39655;53.210;5.768;2023-06-14T07:12:19;19.10;62.70
53748;DHT22;39655;53.210;5.768;2023-06-14T07:14:45;19.20;61.60
53748;DHT22;39655;53.210;5.768;2023-06-14T07:17:11;19.20;60.70
53748;DHT22;39655;53.210;5.768;2023-06-14T07:19:36;19.40;60.30
53748;DHT22;39655;53.210;5.768;2023-06-14T07:22:02;19.50;59.60
53748;DHT22;39655;53.210;5.768;2023-06-14T07:24:28;19.60;59.30
53748;DHT22;39655;53.210;5.768;2023-06-14T07:26:54;19.60;59.10
53748;DHT22;39655;53.210;5.768;2023-06-14T07:29:20;19.70;59.30
53748;DHT22;39655;53.210;5.768;2023-06-14T07:31:46;19.80;58.90
53748;DHT22;39655;53.210;5.768;2023-06-14T07:34:12;20.00;57.90
53748;DHT22;39655;53.210;5.768;2023-06-14T07:36:38;20.00;58.50
53748;DHT22;39655;53.210;5.768;2023-06-14T07:39:04;20.10;58.40
53748;DHT22;39655;53.210;5.768;2023-06-14T07:41:31;20.30;58.10
53748;DHT22;39655;53.210;5.768;2023-06-14T07:43:57;20.40;56.30
53748;DHT22;39655;53.210;5.768;2023-06-14T07:46:22;20.50;55.70
53748;DHT22;39655;53.210;5.768;2023-06-14T07:48:48;20.60;56.30
53748;DHT22;39655;53.210;5.768;2023-06-14T07:51:14;20.70;56.20
53748;DHT22;39655;53.210;5.768;2023-06-14T07:53:39;20.80;56.10
53748;DHT22;39655;53.210;5.768;2023-06-14T07:56:06;20.80;55.40
53748;DHT22;39655;53.210;5.768;2023-06-14T07:58:32;20.90;54.70
53748;DHT22;39655;53.210;5.768;2023-06-14T08:00:58;21.00;54.10
53748;DHT22;39655;53.210;5.768;2023-06-14T08:03:27;21.10;54.00
53748;DHT22;39655;53.210;5.768;2023-06-14T08:05:52;21.10;53.30
53748;DHT22;39655;53.210;5.768;2023-06-14T08:08:18;21.20;53.20
53748;DHT22;39655;53.210;5.768;2023-06-14T08:10:46;21.30;52.80
53748;DHT22;39655;53.210;5.768;2023-06-14T08:13:12;21.40;53.70
53748;DHT22;39655;53.210;5.768;2023-06-14T08:15:38;21.50;53.50
53748;DHT22;39655;53.210;5.768;2023-06-14T08:18:04;21.50;52.80
53748;DHT22;39655;53.210;5.768;2023-06-14T08:20:30;21.60;51.80
53748;DHT22;39655;53.210;5.768;2023-06-14T08:22:57;21.60;52.20
53748;DHT22;39655;53.210;5.768;2023-06-14T08:25:23;21.70;51.90
53748;DHT22;39655;53.210;5.768;2023-06-14T08:27:52;21.80;52.20
53748;DHT22;39655;53.210;5.768;2023-06-14T08:30:17;21.90;52.20
53748;DHT22;39655;53.210;5.768;2023-06-14T08:32:43;22.00;51.90
53748;DHT22;39655;53.210;5.768;2023-06-14T08:35:09;22.10;51.20
53748;DHT22;39655;53.210;5.768;2023-06-14T08:37:41;22.10;50.60
53748;DHT22;39655;53.210;5.768;2023-06-14T08:40:22;22.10;50.60
53748;DHT22;39655;53.210;5.768;2023-06-14T08:42:51;22.20;50.50
53748;DHT22;39655;53.210;5.768;2023-06-14T08:45:17;22.30;50.70
53748;DHT22;39655;53.210;5.768;2023-06-14T08:47:42;22.40;50.10
53748;DHT22;39655;53.210;5.768;2023-06-14T08:50:09;22.50;49.70
53748;DHT22;39655;53.210;5.768;2023-06-14T08:52:38;22.60;49.60
53748;DHT22;39655;53.210;5.768;2023-06-14T08:55:11;22.60;49.20
53748;DHT22;39655;53.210;5.768;2023-06-14T08:57:39;22.60;49.40
53748;DHT22;39655;53.210;5.768;2023-06-14T09:00:06;22.70;49.40
53748;DHT22;39655;53.210;5.768;2023-06-14T09:02:42;22.70;48.60
53748;DHT22;39655;53.210;5.768;2023-06-14T09:05:11;22.90;49.20
53748;DHT22;39655;53.210;5.768;2023-06-14T09:07:42;22.90;48.20
53748;DHT22;39655;53.210;5.768;2023-06-14T09:10:17;22.90;48.20
53748;DHT22;39655;53.210;5.768;2023-06-14T09:12:46;23.00;48.40
53748;DHT22;39655;53.210;5.768;2023-06-14T09:15:13;23.10;48.60
53748;DHT22;39655;53.210;5.768;2023-06-14T09:17:40;23.10;48.30
53748;DHT22;39655;53.210;5.768;2023-06-14T09:20:07;23.20;47.30
53748;DHT22;39655;53.210;5.768;2023-06-14T09:22:39;23.30;47.20
53748;DHT22;39655;53.210;5.768;2023-06-14T09:25:07;23.40;45.70
53748;DHT22;39655;53.210;5.768;2023-06-14T09:27:33;23.50;46.10
53748;DHT22;39655;53.210;5.768;2023-06-14T09:29:59;23.50;46.40
53748;DHT22;39655;53.210;5.768;2023-06-14T09:32:25;23.60;46.00
53748;DHT22;39655;53.210;5.768;2023-06-14T09:34:51;23.70;46.70
53748;DHT22;39655;53.210;5.768;2023-06-14T09:37:31;23.70;44.90
53748;DHT22;39655;53.210;5.768;2023-06-14T09:40:03;23.70;45.60
53748;DHT22;39655;53.210;5.768;2023-06-14T09:42:29;23.80;44.70
53748;DHT22;39655;53.210;5.768;2023-06-14T09:44:56;23.90;44.50
53748;DHT22;39655;53.210;5.768;2023-06-14T09:47:23;24.00;43.70
53748;DHT22;39655;53.210;5.768;2023-06-14T09:49:51;24.10;43.30
53748;DHT22;39655;53.210;5.768;2023-06-14T09:52:21;24.10;44.30
53748;DHT22;39655;53.210;5.768;2023-06-14T09:54:48;24.20;44.80
53748;DHT22;39655;53.210;5.768;2023-06-14T09:57:23;24.30;43.80
53748;DHT22;39655;53.210;5.768;2023-06-14T09:59:53;24.40;43.80
53748;DHT22;39655;53.210;5.768;2023-06-14T10:02:25;24.40;43.40
53748;DHT22;39655;53.210;5.768;2023-06-14T10:05:13;24.50;43.10
53748;DHT22;39655;53.210;5.768;2023-06-14T10:08:00;24.50;43.00
53748;DHT22;39655;53.210;5.768;2023-06-14T10:10:28;24.60;43.20
53748;DHT22;39655;53.210;5.768;2023-06-14T10:12:54;24.70;43.00
53748;DHT22;39655;53.210;5.768;2023-06-14T10:15:35;24.80;42.20
53748;DHT22;39655;53.210;5.768;2023-06-14T10:18:48;24.80;41.60
53748;DHT22;39655;53.210;5.768;2023-06-14T10:24:15;24.90;41.60
53748;DHT22;39655;53.210;5.768;2023-06-14T10:26:57;24.90;41.00
53748;DHT22;39655;53.210;5.768;2023-06-14T10:29:24;25.00;40.70
53748;DHT22;39655;53.210;5.768;2023-06-14T10:31:53;25.00;40.20
53748;DHT22;39655;53.210;5.768;2023-06-14T10:34:25;25.00;41.20
53748;DHT22;39655;53.210;5.768;2023-06-14T10:37:15;25.10;41.50
53748;DHT22;39655;53.210;5.768;2023-06-14T10:39:44;25.30;40.80
53748;DHT22;39655;53.210;5.768;2023-06-14T10:42:15;25.40;41.10
53748;DHT22;39655;53.210;5.768;2023-06-14T10:44:42;25.40;41.10
53748;DHT22;39655;53.210;5.768;2023-06-14T10:49:54;25.50;41.30
53748;DHT22;39655;53.210;5.768;2023-06-14T10:52:27;25.60;41.30
53748;DHT22;39655;53.210;5.768;2023-06-14T10:57:30;25.80;41.60
53748;DHT22;39655;53.210;5.768;2023-06-14T11:00:00;25.90;41.20
53748;DHT22;39655;53.210;5.768;2023-06-14T11:05:30;26.10;39.80
53748;DHT22;39655;53.210;5.768;2023-06-14T11:08:55;26.10;40.40
53748;DHT22;39655;53.210;5.768;2023-06-14T11:10:59;26.20;41.20
53748;DHT22;39655;53.210;5.768;2023-06-14T11:13:26;26.30;39.50
53748;DHT22;39655;53.210;5.768;2023-06-14T11:15:54;26.30;39.40
53748;DHT22;39655;53.210;5.768;2023-06-14T11:18:22;26.20;39.80
53748;DHT22;39655;53.210;5.768;2023-06-14T11:20:52;26.30;40.40
53748;DHT22;39655;53.210;5.768;2023-06-14T11:23:19;26.30;39.60
53748;DHT22;39655;53.210;5.768;2023-06-14T11:25:52;26.40;39.20
53748;DHT22;39655;53.210;5.768;2023-06-14T11:28:18;26.40;39.00
53748;DHT22;39655;53.210;5.768;2023-06-14T11:30:59;26.40;38.70
53748;DHT22;39655;53.210;5.768;2023-06-14T11:33:25;26.50;38.40
53748;DHT22;39655;53.210;5.768;2023-06-14T11:35:51;26.60;38.80
53748;DHT22;39655;53.210;5.768;2023-06-14T11:38:20;26.70;38.30
53748;DHT22;39655;53.210;5.768;2023-06-14T11:40:46;27.00;38.20
53748;DHT22;39655;53.210;5.768;2023-06-14T11:43:12;27.20;37.70
53748;DHT22;39655;53.210;5.768;2023-06-14T11:45:40;27.70;37.10
53748;DHT22;39655;53.210;5.768;2023-06-14T11:48:06;28.20;36.20
53748;DHT22;39655;53.210;5.768;2023-06-14T11:50:32;28.60;35.00
53748;DHT22;39655;53.210;5.768;2023-06-14T11:53:01;29.10;35.40
53748;DHT22;39655;53.210;5.768;2023-06-14T11:55:39;29.40;34.40
53748;DHT22;39655;53.210;5.768;2023-06-14T11:58:06;29.90;34.30
53748;DHT22;39655;53.210;5.768;2023-06-14T12:00:35;30.20;33.10
53748;DHT22;39655;53.210;5.768;2023-06-14T12:03:01;30.50;33.10
53748;DHT22;39655;53.210;5.768;2023-06-14T12:05:27;30.40;31.70
53748;DHT22;39655;53.210;5.768;2023-06-14T12:08:01;30.20;32.10
53748;DHT22;39655;53.210;5.768;2023-06-14T12:10:28;30.20;32.30
53748;DHT22;39655;53.210;5.768;2023-06-14T12:12:58;30.40;32.80
53748;DHT22;39655;53.210;5.768;2023-06-14T12:15:24;30.60;32.60
53748;DHT22;39655;53.210;5.768;2023-06-14T12:17:54;30.70;32.00
53748;DHT22;39655;53.210;5.768;2023-06-14T12:20:19;30.70;31.10
53748;DHT22;39655;53.210;5.768;2023-06-14T12:22:58;30.80;31.00
53748;DHT22;39655;53.210;5.768;2023-06-14T12:25:28;31.00;30.80
53748;DHT22;39655;53.210;5.768;2023-06-14T12:28:00;31.00;30.80
53748;DHT22;39655;53.210;5.768;2023-06-14T12:30:29;30.90;30.80
53748;DHT22;39655;53.210;5.768;2023-06-14T12:32:55;30.90;31.00
53748;DHT22;39655;53.210;5.768;2023-06-14T12:35:21;31.40;31.40
53748;DHT22;39655;53.210;5.768;2023-06-14T12:37:47;31.90;30.80
53748;DHT22;39655;53.210;5.768;2023-06-14T12:40:13;32.30;30.20
53748;DHT22;39655;53.210;5.768;2023-06-14T12:42:40;32.30;29.90
53748;DHT22;39655;53.210;5.768;2023-06-14T12:45:06;32.40;29.20
53748;DHT22;39655;53.210;5.768;2023-06-14T12:47:32;32.40;29.20
53748;DHT22;39655;53.210;5.768;2023-06-14T12:49:58;32.50;32.20
53748;DHT22;39655;53.210;5.768;2023-06-14T12:52:26;32.50;34.00
53748;DHT22;39655;53.210;5.768;2023-06-14T12:54:52;31.50;35.60
53748;DHT22;39655;53.210;5.768;2023-06-14T12:57:19;31.50;36.30
53748;DHT22;39655;53.210;5.768;2023-06-14T12:59:45;31.50;36.40
53748;DHT22;39655;53.210;5.768;2023-06-14T13:02:16;30.70;37.40
53748;DHT22;39655;53.210;5.768;2023-06-14T13:04:45;29.50;39.30
53748;DHT22;39655;53.210;5.768;2023-06-14T13:07:11;29.40;40.20
53748;DHT22;39655;53.210;5.768;2023-06-14T13:09:40;30.00;39.40
53748;DHT22;39655;53.210;5.768;2023-06-14T13:12:07;29.90;38.80
53748;DHT22;39655;53.210;5.768;2023-06-14T13:14:33;29.50;39.80
53748;DHT22;39655;53.210;5.768;2023-06-14T13:16:58;28.50;41.30
53748;DHT22;39655;53.210;5.768;2023-06-14T13:19:24;27.70;43.90
53748;DHT22;39655;53.210;5.768;2023-06-14T13:21:50;27.20;44.60
53748;DHT22;39655;53.210;5.768;2023-06-14T13:24:16;27.80;44.40
53748;DHT22;39655;53.210;5.768;2023-06-14T13:26:42;29.00;42.00
53748;DHT22;39655;53.210;5.768;2023-06-14T13:29:08;30.10;39.80
53748;DHT22;39655;53.210;5.768;2023-06-14T13:31:33;30.50;38.20
53748;DHT22;39655;53.210;5.768;2023-06-14T13:33:59;30.20;38.90
53748;DHT22;39655;53.210;5.768;2023-06-14T13:36:25;30.60;38.80
53748;DHT22;39655;53.210;5.768;2023-06-14T13:38:50;31.20;37.90
53748;DHT22;39655;53.210;5.768;2023-06-14T13:41:18;31.60;36.90
53748;DHT22;39655;53.210;5.768;2023-06-14T13:43:43;31.90;36.20
53748;DHT22;39655;53.210;5.768;2023-06-14T13:46:09;31.10;36.90
53748;DHT22;39655;53.210;5.768;2023-06-14T13:48:35;29.70;38.80
53748;DHT22;39655;53.210;5.768;2023-06-14T13:51:01;29.30;40.50
53748;DHT22;39655;53.210;5.768;2023-06-14T13:53:29;29.10;40.70
53748;DHT22;39655;53.210;5.768;2023-06-14T13:55:55;28.30;41.70
53748;DHT22;39655;53.210;5.768;2023-06-14T13:58:23;27.80;43.00
53748;DHT22;39655;53.210;5.768;2023-06-14T14:00:49;28.10;43.20
53748;DHT22;39655;53.210;5.768;2023-06-14T14:03:15;28.50;42.60
53748;DHT22;39655;53.210;5.768;2023-06-14T14:05:41;29.40;41.20
53748;DHT22;39655;53.210;5.768;2023-06-14T14:08:07;30.50;39.70
53748;DHT22;39655;53.210;5.768;2023-06-14T14:10:32;31.40;37.60
53748;DHT22;39655;53.210;5.768;2023-06-14T14:13:07;32.00;36.10
53748;DHT22;39655;53.210;5.768;2023-06-14T14:15:33;32.10;36.00
53748;DHT22;39655;53.210;5.768;2023-06-14T14:18:00;32.20;35.90
53748;DHT22;39655;53.210;5.768;2023-06-14T14:20:25;32.40;35.70
53748;DHT22;39655;53.210;5.768;2023-06-14T14:22:51;31.60;36.20
53748;DHT22;39655;53.210;5.768;2023-06-14T14:25:17;30.70;38.20
53748;DHT22;39655;53.210;5.768;2023-06-14T14:27:43;30.90;38.70
53748;DHT22;39655;53.210;5.768;2023-06-14T14:30:09;31.40;36.80
53748;DHT22;39655;53.210;5.768;2023-06-14T14:32:35;31.50;36.50
53748;DHT22;39655;53.210;5.768;2023-06-14T14:35:00;31.80;36.10
53748;DHT22;39655;53.210;5.768;2023-06-14T14:37:26;31.80;35.90
53748;DHT22;39655;53.210;5.768;2023-06-14T14:39:52;31.10;36.80
53748;DHT22;39655;53.210;5.768;2023-06-14T14:42:18;31.20;37.30
53748;DHT22;39655;53.210;5.768;2023-06-14T14:44:43;31.50;36.20
53748;DHT22;39655;53.210;5.768;2023-06-14T14:47:10;31.40;36.30
53748;DHT22;39655;53.210;5.768;2023-06-14T14:49:36;31.40;36.70
53748;DHT22;39655;53.210;5.768;2023-06-14T14:52:05;31.50;36.40
53748;DHT22;39655;53.210;5.768;2023-06-14T14:54:30;31.90;36.80
53748;DHT22;39655;53.210;5.768;2023-06-14T14:56:56;32.40;36.00
53748;DHT22;39655;53.210;5.768;2023-06-14T14:59:22;32.50;34.40
53748;DHT22;39655;53.210;5.768;2023-06-14T15:01:50;32.20;35.00
53748;DHT22;39655;53.210;5.768;2023-06-14T15:04:17;31.60;36.00
53748;DHT22;39655;53.210;5.768;2023-06-14T15:06:42;31.10;36.50
53748;DHT22;39655;53.210;5.768;2023-06-14T15:09:08;31.20;37.00
53748;DHT22;39655;53.210;5.768;2023-06-14T15:11:34;31.60;36.70
53748;DHT22;39655;53.210;5.768;2023-06-14T15:14:03;31.90;35.60
53748;DHT22;39655;53.210;5.768;2023-06-14T15:16:28;32.00;35.50
53748;DHT22;39655;53.210;5.768;2023-06-14T15:18:54;32.20;35.30
53748;DHT22;39655;53.210;5.768;2023-06-14T15:21:20;32.30;34.60
53748;DHT22;39655;53.210;5.768;2023-06-14T15:23:47;32.20;34.90
53748;DHT22;39655;53.210;5.768;2023-06-14T15:26:13;32.20;35.10
53748;DHT22;39655;53.210;5.768;2023-06-14T15:28:42;32.30;35.10
53748;DHT22;39655;53.210;5.768;2023-06-14T15:31:08;32.60;34.70
53748;DHT22;39655;53.210;5.768;2023-06-14T15:33:34;32.80;34.20
53748;DHT22;39655;53.210;5.768;2023-06-14T15:36:00;32.60;34.10
53748;DHT22;39655;53.210;5.768;2023-06-14T15:38:26;32.30;34.50
53748;DHT22;39655;53.210;5.768;2023-06-14T15:40:51;32.70;34.30
53748;DHT22;39655;53.210;5.768;2023-06-14T15:43:20;32.70;34.20
53748;DHT22;39655;53.210;5.768;2023-06-14T15:45:45;32.80;34.00